Broken Bow, NE (68822)

4:11 PM CST on February 08, 2016 (GMT -0600)
South of Town | | Change Station
CLOSE
Current Station
Personal Weather Station
Location: Broken Bow, NE
Elevation: 2523 ft
Nearby Weather Stations

Elev 2523 ft 41.38 °N, 99.64 °W | Updated 60 seconds ago

Clear
Clear
35.1 °F
Feels Like 26 °F
N
15.0
Wind Variable Wind from NW
Gusts 15.0 mph

Today
High -- | Low -- °F
--% Chance of Precip.
Yesterday
High -- | Low -- °F
Precip. -- in
Pressure 30.25 in
Visibility 10.0 miles
Clouds Clear
Windchill 26 °F
Dew Point 15 °F
Humidity 43%
Rainfall 0.00 in
Snow Depth Not available.
7:42 AM 6:03 PM
New Moon, 0% visible
METAR KBBW 082153Z AUTO 33025G40KT 10SM CLR 02/M11 A3019 RMK AO2 PK WND 33041/2058 SLP244 T00221106
Pressure 30.25 in
Visibility 10.0 miles
Clouds Clear
Windchill 26 °F
Dew Point 15 °F
Humidity 43%
Rainfall 0.00 in
Snow Depth Not available.
7:42 AM 6:03 PM
New Moon, 0% visible
METAR KBBW 082153Z AUTO 33025G40KT 10SM CLR 02/M11 A3019 RMK AO2 PK WND 33041/2058 SLP244 T00221106

10-Day Weather Forecast

Almanac

Astronomy

Feb. 08, 2016 Rise Set
Actual Time
Civil Twilight
Nautical Twilight
Astronomical Twilight
Moon
Length of Visible Light
Length of Day
Tomorrow will be .
, % of the Moon is Illuminated

Today's Extremes

State Highs State Lows

Community

WunderPhotos

Upload Photos

1,891,516 photos uploaded!

WunderBlog® & News

Nearby

Air Quality

  Air Quality AQ Index Pollutant
Not available.

Snow Depth

Station Depth Elevation

Earthquake Activity

City Distance Mag. Time & Date
Minimum magnitude displayed is 2.5.

Coastal Water Temperatures

Place Temperature

Stations

Nearby Weather Stations

Station Location Temp. Windchill Dew Point Humidity Wind Precip. Elev Updated Type
                   

Watches & Warnings

There are currently no watches in effect.